ジュネーヴ・コアントラン国際空港の過去48時間の天気

ジュネーヴ・コアントラン国際空港 (Geneve-Cointrin)

現在時刻: 7/15 13:51 CEST (7/15 11:51 UTC) 以下の時間は現地時間です。

過去48時間のMETAR気象情報
時間 風向 風速(m/s) 視程 気温(℃) 湿度(%) 気圧(hPa) 天気現象
15 13:20 不定 1 10km以上 19 64 1017 周辺でしゅう雨
15 12:50 不定 1 10km以上 19 73 1017 周辺でしゅう雨
15 12:20 不定 1 10km以上 19 64 1016 弱いしゅう雨
15 11:50 不定 1 10km以上 19 64 1016 周辺でしゅう雨
15 11:20 不定 1 10km以上 18 68 1016
15 10:50 西南西 2 10km以上 18 68 1016
15 10:20 西南西 4 10km以上 18 73 1016 弱いしゅう雨
15 09:50 西南西 4 10km以上 20 53 1015 周辺でしゅう雨
15 09:20 西 2 10km以上 20 53 1015
15 08:50 西南西 2 10km以上 20 49 1015
15 08:20 西南西 2 10km以上 19 56 1015
15 07:50 西 2 10km以上 18 64 1015
15 07:20 西 1 10km以上 17 63 1015
15 06:50 西北西 1 10km以上 17 59 1015
15 06:20 不定 1 10km以上 17 55 1014
15 05:50 西南西 1 10km以上 17 55 1014
15 05:20 西 2 10km以上 17 63 1014
15 04:50 不定 1 10km以上 17 59 1014
15 04:20 不定 1 10km以上 17 55 1014
15 03:50 不定 1 10km以上 17 59 1014
15 03:20 不定 1 10km以上 17 59 1015
15 02:50 不定 1 10km以上 17 55 1015
15 02:20 不定 1 10km以上 17 55 1015
15 01:50 不定 1 10km以上 17 55 1015
15 01:20 西南西 2 10km以上 18 52 1015
15 00:50 不定 2 10km以上 18 56 1015
15 00:20 西北西 1 10km以上 18 56 1015
14 23:50 不定 1 10km以上 18 56 1015
14 23:20 1 10km以上 20 46 1015
14 22:50 西南西 2 10km以上 21 40 1015
14 22:20 西北西 2 10km以上 23 33 1015
14 21:50 西南西 3 10km以上 23 33 1015
14 21:20 北西 1 10km以上 23 33 1014
14 20:50 北西 2 10km以上 24 29 1014
14 20:20 北北西 3 10km以上 24 31 1014
14 19:50 北西 3 10km以上 25 30 1014
14 19:20 3 10km以上 26 28 1014
14 18:50 北西 3 10km以上 26 30 1014
14 18:20 2 10km以上 26 32 1014
14 17:50 東北東 2 10km以上 26 32 1014
14 17:20 4 10km以上 26 32 1014
14 16:50 3 10km以上 26 32 1014
14 16:20 1 10km以上 26 28 1014
14 15:50 西 2 10km以上 26 28 1015
14 15:20 2 10km以上 26 32 1015
14 14:50 3 10km以上 26 32 1015
14 14:20 不定 2 10km以上 26 30 1015
14 13:50 3 10km以上 26 30 1015
14 13:20 4 10km以上 26 28 1016
14 12:50 不定 2 10km以上 25 30 1016
14 12:20 東北東 3 10km以上 25 30 1016
14 11:50 不定 1 10km以上 25 28 1016
14 11:20 不定 1 10km以上 24 36 1017
14 10:50 東北東 2 10km以上 23 41 1017
14 10:20 不定 1 10km以上 22 50 1017
14 09:50 不定 1 10km以上 21 56 1017
14 09:20 不定 1 10km以上 21 56 1017
14 08:50 不定 1 10km以上 20 60 1017
14 08:20 不定 1 10km以上 19 64 1017
14 07:50 不定 1 10km以上 18 64 1017
14 07:20 不定 1 10km以上 16 72 1017
14 06:50 不定 1 10km以上 14 77 1017
14 06:20 不定 2 10km以上 13 82 1017
14 05:50 不定 1 10km以上 13 82 1017
14 05:20 不定 1 10km以上 14 77 1017
14 04:50 静穏 0 10km以上 14 82 1017
14 04:20 不定 1 10km以上 14 82 1017
14 03:50 不定 1 10km以上 15 77 1017
14 03:20 不定 1 10km以上 15 77 1018
14 02:50 不定 1 10km以上 15 77 1018
14 02:20 不定 1 10km以上 16 72 1018
14 01:50 不定 1 10km以上 17 72 1018
14 01:20 北北西 1 10km以上 17 68 1018
14 00:50 不定 1 10km以上 17 72 1018
14 00:20 1 10km以上 18 73 1018
13 23:50 不定 1 10km以上 18 68 1018
13 23:20 1 10km以上 19 64 1018
13 22:50 北東 1 10km以上 20 60 1018
13 22:20 北東 2 10km以上 22 50 1018
13 21:50 東南東 3 10km以上 22 53 1018
LSGG 151120Z VRB02KT 9999 VCSH FEW050 BKN060 19/12 Q1017 NOSIG
LSGG 151050Z VRB01KT 9999 VCSH FEW050 BKN060 19/14 Q1017 NOSIG
LSGG 151020Z VRB01KT 9999 -SHRA FEW050 BKN065 19/12 Q1016 NOSIG
LSGG 150950Z VRB02KT 9999 VCSH FEW050 BKN070 19/12 Q1016 NOSIG
LSGG 150920Z VRB02KT 9999 FEW050 BKN080 18/12 Q1016 NOSIG
LSGG 150850Z 24003KT 180V290 9999 FEW050 BKN075 18/12 Q1016 NOSIG
LSGG 150820Z 24007KT 9999 -SHRA FEW050 BKN075 18/13 Q1016 NOSIG
LSGG 150750Z 24008KT 9999 VCSH BKN080 20/10 Q1015 NOSIG
LSGG 150720Z 26004KT 9999 SCT080 20/10 Q1015 NOSIG
LSGG 150650Z 25003KT 9999 FEW085 20/09 Q1015 NOSIG
LSGG 150620Z 25003KT 9999 FEW080 19/10 Q1015 NOSIG
LSGG 150550Z 26003KT 9999 FEW075 18/11 Q1015 NOSIG
LSGG 150520Z 28002KT 9999 SCT075 17/10 Q1015 NOSIG
LSGG 150450Z 29002KT 9999 SCT075 17/09 Q1015 NOSIG
LSGG 150420Z VRB01KT 9999 SCT080 17/08 Q1014 NOSIG
LSGG 150350Z 25002KT 9999 BKN080 17/08 Q1014 NOSIG
LSGG 150320Z AUTO 27003KT 240V300 9999 BKN075 17/10 Q1014 NOSIG
LSGG 150250Z AUTO VRB02KT 9999 SCT075 BKN085 17/09 Q1014 NOSIG
LSGG 150220Z AUTO VRB02KT 9999 FEW080 BKN090 17/08 Q1014 NOSIG
LSGG 150150Z AUTO VRB01KT 9999 BKN090 17/09 Q1014 NOSIG
LSGG 150120Z AUTO VRB01KT CAVOK 17/09 Q1015 NOSIG
LSGG 150050Z AUTO VRB01KT CAVOK 17/08 Q1015 NOSIG
LSGG 150020Z AUTO VRB02KT 9999 NSC 17/08 Q1015 NOSIG
LSGG 142350Z AUTO VRB02KT 9999 SCT080 17/08 Q1015 NOSIG
LSGG 142320Z AUTO 24004KT 9999 BKN080 18/08 Q1015 NOSIG
LSGG 142250Z AUTO VRB03KT CAVOK 18/09 Q1015 NOSIG
LSGG 142220Z AUTO 30002KT CAVOK 18/09 Q1015 NOSIG
LSGG 142150Z AUTO VRB01KT 9999 NSC 18/09 Q1015 NOSIG
LSGG 142120Z 08001KT 9999 FEW080 SCT090 20/08 Q1015 NOSIG
LSGG 142050Z 24003KT 9999 FEW080 SCT090 21/07 Q1015 NOSIG
LSGG 142020Z 29003KT 9999 FEW080 SCT090 23/06 Q1015 NOSIG
LSGG 141950Z 24005KT 9999 FEW090 23/06 Q1015 NOSIG
LSGG 141920Z 31002KT 9999 FEW090 23/06 Q1014 NOSIG
LSGG 141850Z 32004KT 9999 FEW070 SCT090 24/05 Q1014 NOSIG
LSGG 141820Z 33005KT 9999 FEW070 SCT090 24/06 Q1014 NOSIG
LSGG 141750Z 32005KT 9999 FEW070 SCT090 25/06 Q1014 NOSIG
LSGG 141720Z 35006KT 9999 FEW070 SCT090 26/06 Q1014 NOSIG
LSGG 141650Z 32005KT 9999 FEW070 SCT090 26/07 Q1014 NOSIG
LSGG 141620Z 35003KT 9999 FEW070 SCT090 26/08 Q1014 NOSIG
LSGG 141550Z 07003KT 9999 FEW070 SCT090 26/08 Q1014 NOSIG
LSGG 141520Z 08007KT 9999 FEW070 SCT090 26/08 Q1014 NOSIG
LSGG 141450Z 08006KT 9999 FEW070 26/08 Q1014 NOSIG
LSGG 141420Z 01002KT 9999 FEW070 26/06 Q1014 NOSIG
LSGG 141350Z 27004KT 9999 FEW070 26/06 Q1015 NOSIG
LSGG 141320Z 35003KT 9999 FEW070 26/08 Q1015 NOSIG
LSGG 141250Z VRB05KT 9999 FEW070 26/08 Q1015 NOSIG
LSGG 141220Z VRB03KT 9999 FEW070 26/07 Q1015 NOSIG
LSGG 141150Z 08006KT 9999 FEW070 26/07 Q1015 NOSIG
LSGG 141120Z 08008KT 060V120 9999 FEW070 26/06 Q1016 NOSIG
LSGG 141050Z VRB03KT 9999 FEW060 25/06 Q1016 NOSIG
LSGG 141020Z 07005KT 350V120 9999 FEW055 25/06 Q1016 NOSIG
LSGG 140950Z VRB02KT 9999 FEW050 25/05 Q1016 NOSIG
LSGG 140920Z VRB02KT 9999 FEW050 24/08 Q1017 NOSIG
LSGG 140850Z 07003KT 020V130 9999 FEW050 23/09 Q1017 NOSIG
LSGG 140820Z VRB02KT 9999 FEW050 22/11 Q1017 NOSIG
LSGG 140750Z VRB01KT 9999 FEW050 21/12 Q1017 NOSIG
LSGG 140720Z VRB01KT 9999 FEW050 21/12 Q1017 NOSIG
LSGG 140650Z VRB01KT 9999 FEW050 20/12 Q1017 NOSIG
LSGG 140620Z VRB01KT CAVOK 19/12 Q1017 NOSIG
LSGG 140550Z VRB01KT CAVOK 18/11 Q1017 NOSIG
LSGG 140520Z VRB01KT CAVOK 16/11 Q1017 NOSIG
LSGG 140450Z VRB01KT CAVOK 14/10 Q1017 NOSIG
LSGG 140420Z VRB03KT CAVOK 13/10 Q1017 NOSIG
LSGG 140350Z VRB01KT CAVOK 13/10 Q1017 NOSIG
LSGG 140320Z AUTO VRB01KT CAVOK 14/10 Q1017 NOSIG
LSGG 140250Z AUTO 00000KT CAVOK 14/11 Q1017 NOSIG
LSGG 140220Z AUTO VRB01KT CAVOK 14/11 Q1017 NOSIG
LSGG 140150Z AUTO VRB01KT 9999 NSC 15/11 Q1017 NOSIG
LSGG 140120Z AUTO VRB01KT CAVOK 15/11 Q1018 NOSIG
LSGG 140050Z AUTO VRB01KT CAVOK 15/11 Q1018 NOSIG
LSGG 140020Z AUTO VRB01KT CAVOK 16/11 Q1018 NOSIG
LSGG 132350Z AUTO VRB01KT 9999 NCD 17/12 Q1018 NOSIG
LSGG 132320Z AUTO 34002KT 9999 FEW080 17/11 Q1018 NOSIG
LSGG 132250Z AUTO VRB02KT 9999 FEW080 17/12 Q1018 NOSIG
LSGG 132220Z AUTO 01002KT 9999 SCT080 SCT090 18/13 Q1018 NOSIG
LSGG 132150Z AUTO VRB01KT 9999 SCT065 BKN075 18/12 Q1018 NOSIG
LSGG 132120Z 35001KT 9999 FEW060 SCT090 19/12 Q1018 NOSIG
LSGG 132050Z 04002KT 9999 FEW060 SCT090 20/12 Q1018 NOSIG
LSGG 132020Z 04003KT 9999 FEW060 SCT090 22/11 Q1018 NOSIG
LSGG 131950Z 11006KT 9999 FEW060 SCT090 22/12 Q1018 NOSIG